Time,TemperatureF,DewpointF,PressureIn,WindDirection,WindDirectionDegrees,WindSpeedMPH,WindSpeedGustMPH,Humidity,HourlyPrecipIn,Conditions,Clouds,dailyrainin,SoftwareType,DateUTC
2013-09-02 00:11:00,57.0,47.0,30.20,West,271,0.0,0.0,68,0.00,,,0.00,,2013-09-02 07:11:00,
2013-09-02 00:21:00,57.0,47.0,30.20,West,271,0.0,0.0,68,0.00,,,0.00,,2013-09-02 07:21:00,
2013-09-02 00:52:00,56.0,46.0,30.19,West,271,0.0,1.0,69,0.00,,,0.00,,2013-09-02 07:52:00,
2013-09-02 01:22:00,55.0,45.0,30.19,West,271,0.0,0.0,70,0.00,,,0.00,,2013-09-02 08:22:00,
2013-09-02 01:52:00,55.0,46.0,30.19,West,271,0.0,0.0,72,0.00,,,0.00,,2013-09-02 08:52:00,
2013-09-02 02:22:00,54.0,45.0,30.19,West,271,0.0,0.0,72,0.00,,,0.00,,2013-09-02 09:22:00,
2013-09-02 02:53:00,54.0,46.0,30.19,West,271,0.0,0.0,73,0.00,,,0.00,,2013-09-02 09:53:00,
2013-09-02 03:22:00,53.0,45.0,30.19,West,271,0.0,0.0,73,0.00,,,0.00,,2013-09-02 10:22:00,
2013-09-02 03:53:00,53.0,45.0,30.19,West,271,0.0,0.0,73,0.00,,,0.00,,2013-09-02 10:53:00,
2013-09-02 04:11:00,53.0,45.0,30.19,West,271,0.0,0.0,74,0.00,,,0.00,,2013-09-02 11:11:00,
2013-09-02 04:22:00,53.0,45.0,30.19,West,271,0.0,0.0,75,0.00,,,0.00,,2013-09-02 11:22:00,
2013-09-02 04:52:00,52.0,45.0,30.18,West,271,0.0,0.0,77,0.00,,,0.00,,2013-09-02 11:52:00,
2013-09-02 05:12:00,52.0,45.0,30.18,West,271,0.0,0.0,77,0.00,,,0.00,,2013-09-02 12:12:00,
2013-09-02 05:21:00,52.0,45.0,30.18,West,271,0.0,0.0,78,0.00,,,0.00,,2013-09-02 12:21:00,
2013-09-02 05:52:00,52.0,45.0,30.18,West,271,0.0,0.0,78,0.00,,,0.00,,2013-09-02 12:52:00,
2013-09-02 06:11:00,51.0,44.0,30.18,West,271,0.0,0.0,78,0.00,,,0.00,,2013-09-02 13:11:00,
2013-09-02 06:21:00,51.0,45.0,30.18,West,271,0.0,0.0,79,0.00,,,0.00,,2013-09-02 13:21:00,
2013-09-02 06:52:00,50.0,44.0,30.19,West,271,0.0,0.0,80,0.00,,,0.00,,2013-09-02 13:52:00,
2013-09-02 07:11:00,51.0,46.0,30.19,West,271,0.0,0.0,82,0.00,,,0.00,,2013-09-02 14:11:00,
2013-09-02 07:22:00,51.0,46.0,30.20,West,271,0.0,0.0,82,0.00,,,0.00,,2013-09-02 14:22:00,
2013-09-02 07:52:00,53.0,48.0,30.20,West,271,0.0,0.0,83,0.00,,,0.00,,2013-09-02 14:52:00,
2013-09-02 08:12:00,55.0,49.0,30.21,West,271,0.0,2.0,81,0.00,,,0.00,,2013-09-02 15:12:00,
2013-09-02 08:22:00,56.0,50.0,30.21,West,271,0.0,0.0,81,0.00,,,0.00,,2013-09-02 15:22:00,
2013-09-02 08:54:00,60.0,51.0,30.21,West,271,0.0,0.0,72,0.00,,,0.00,,2013-09-02 15:54:00,
2013-09-02 09:24:00,67.0,49.0,30.22,West,270,0.0,1.0,52,0.00,,,0.00,,2013-09-02 16:24:00,
2013-09-02 09:53:00,72.0,53.0,30.22,NW,320,0.0,4.0,52,0.00,,,0.00,,2013-09-02 16:53:00,
2013-09-02 10:23:00,75.0,44.0,30.21,South,189,1.0,6.0,33,0.00,,,0.00,,2013-09-02 17:23:00,
2013-09-02 10:52:00,75.0,45.0,30.21,SSW,192,1.0,5.0,35,0.00,,,0.00,,2013-09-02 17:52:00,
2013-09-02 11:13:00,76.0,46.0,30.21,SW,227,2.0,7.0,35,0.00,,,0.00,,2013-09-02 18:13:00,
2013-09-02 11:22:00,77.0,45.0,30.21,SW,234,1.0,7.0,32,0.00,,,0.00,,2013-09-02 18:22:00,
2013-09-02 11:52:00,78.0,45.0,30.21,WSW,244,0.0,4.0,31,0.00,,,0.00,,2013-09-02 18:52:00,
2013-09-02 12:12:00,78.0,45.0,30.21,SSW,213,3.0,10.0,31,0.00,,,0.00,,2013-09-02 19:12:00,
2013-09-02 12:22:00,79.0,44.0,30.21,SSW,196,2.0,10.0,29,0.00,,,0.00,,2013-09-02 19:22:00,
2013-09-02 12:52:00,79.0,46.0,30.20,SSW,206,2.0,7.0,31,0.00,,,0.00,,2013-09-02 19:52:00,
2013-09-02 13:22:00,76.0,43.0,30.20,SSW,202,1.0,4.0,31,0.00,,,0.00,,2013-09-02 20:22:00,
2013-09-02 13:52:00,76.0,45.0,30.20,North,4,0.0,4.0,33,0.00,,,0.00,,2013-09-02 20:52:00,
2013-09-02 14:23:00,74.0,45.0,30.21,SSW,206,0.0,1.0,36,0.00,,,0.00,,2013-09-02 21:23:00,
2013-09-02 14:54:00,67.0,56.0,30.20,WNW,296,0.0,0.0,69,0.00,,,0.08,,2013-09-02 21:54:00,
2013-09-02 15:23:00,67.0,59.0,30.18,WNW,296,0.0,0.0,76,0.00,,,0.08,,2013-09-02 22:23:00,
2013-09-02 15:54:00,68.0,59.0,30.18,SW,217,0.0,1.0,73,0.00,,,0.08,,2013-09-02 22:54:00,
2013-09-02 16:22:00,72.0,52.0,30.17,SW,219,0.0,0.0,50,0.00,,,0.08,,2013-09-02 23:22:00,
2013-09-02 16:52:00,72.0,51.0,30.17,SSW,199,0.0,5.0,48,0.00,,,0.08,,2013-09-02 23:52:00,
2013-09-02 17:11:00,71.0,50.0,30.17,SW,220,0.0,1.0,48,0.00,,,0.08,,2013-09-03 00:11:00,
2013-09-02 17:21:00,70.0,49.0,30.17,SW,215,0.0,1.0,48,0.00,,,0.08,,2013-09-03 00:21:00,
2013-09-02 17:42:00,69.0,50.0,30.17,SW,236,0.0,4.0,51,0.00,,,0.08,,2013-09-03 00:42:00,
2013-09-02 17:52:00,68.0,51.0,30.16,SW,217,1.0,9.0,55,0.00,,,0.08,,2013-09-03 00:52:00,
2013-09-02 18:11:00,68.0,52.0,30.16,SW,227,1.0,9.0,57,0.00,,,0.08,,2013-09-03 01:11:00,
2013-09-02 18:21:00,67.0,52.0,30.16,NNW,328,0.0,0.0,58,0.00,,,0.08,,2013-09-03 01:21:00,
2013-09-02 18:42:00,66.0,51.0,30.16,WNW,284,1.0,0.0,58,0.00,,,0.08,,2013-09-03 01:42:00,
2013-09-02 18:52:00,66.0,52.0,30.16,SW,220,0.0,2.0,60,0.00,,,0.08,,2013-09-03 01:52:00,
2013-09-02 19:12:00,66.0,51.0,30.16,SW,230,0.0,0.0,59,0.00,,,0.08,,2013-09-03 02:12:00,
2013-09-02 19:21:00,66.0,53.0,30.16,SW,230,0.0,0.0,62,0.00,,,0.08,,2013-09-03 02:21:00,
2013-09-02 19:42:00,66.0,53.0,30.16,SW,230,0.0,0.0,62,0.00,,,0.08,,2013-09-03 02:42:00,
2013-09-02 19:52:00,66.0,53.0,30.17,SW,230,0.0,0.0,62,0.00,,,0.08,,2013-09-03 02:52:00,
2013-09-02 20:23:00,64.0,53.0,30.18,SW,230,0.0,0.0,67,0.00,,,0.08,,2013-09-03 03:23:00,
2013-09-02 20:55:00,62.0,53.0,30.19,SW,230,0.0,0.0,72,0.00,,,0.08,,2013-09-03 03:55:00,
2013-09-02 21:13:00,62.0,53.0,30.19,SW,230,0.0,0.0,72,0.00,,,0.08,,2013-09-03 04:13:00,
2013-09-02 21:24:00,62.0,53.0,30.19,SW,230,0.0,0.0,72,0.00,,,0.08,,2013-09-03 04:24:00,
2013-09-02 21:53:00,60.0,52.0,30.19,SW,230,0.0,0.0,76,0.00,,,0.08,,2013-09-03 04:53:00,
2013-09-02 22:12:00,59.0,52.0,30.19,SW,230,0.0,0.0,77,0.00,,,0.08,,2013-09-03 05:12:00,
2013-09-02 22:23:00,58.0,51.0,30.19,SW,230,0.0,0.0,78,0.00,,,0.08,,2013-09-03 05:23:00,
2013-09-02 22:52:00,58.0,51.0,30.19,SW,230,0.0,0.0,77,0.00,,,0.08,,2013-09-03 05:52:00,
2013-09-02 23:12:00,57.0,50.0,30.19,SW,230,0.0,0.0,77,0.00,,,0.08,,2013-09-03 06:12:00,
2013-09-02 23:22:00,57.0,50.0,30.19,SW,230,0.0,0.0,76,0.00,,,0.08,,2013-09-03 06:22:00,
2013-09-02 23:52:00,57.0,48.0,30.19,SW,230,0.0,0.0,72,0.00,,,0.08,,2013-09-03 06:52:00,